EIN35L EINN-EIDW
Flight info
| Callsign | EIN35L |
|---|---|
| Flight time | 0h 32m |
| Altitude | 21000 |
| Route | AGINI3A AGINI DCT OSGAR OSGAR3R |
| Aircraft | A339/H-SADE1E2E3GHIJ3J5M1P2RWXY/LB2D1 |
Departure
| Time | 2026-05-03 20:15 |
|---|---|
| Airport | Shannon Airport (EINN) |
Arrival
| Time | 2026-05-03 20:48 |
|---|---|
| Airport | Dublin Airport (EIDW) |
| Time | Latitude | Longitude | Altitude | Speed | Heading |
|---|---|---|---|---|---|
| 2026-05-03 20:15 | 52.81595 | -8.80914 | 7720 ft | 262 kts | 22° |
| 2026-05-03 20:15 | 52.83297 | -8.79775 | 8662 ft | 265 kts | 22° |
| 2026-05-03 20:15 | 52.85023 | -8.78616 | 9572 ft | 271 kts | 22° |
| 2026-05-03 20:15 | 52.86782 | -8.77436 | 10407 ft | 278 kts | 22° |
| 2026-05-03 20:16 | 52.88652 | -8.76174 | 10759 ft | 302 kts | 22° |
| 2026-05-03 20:16 | 52.90680 | -8.74808 | 11088 ft | 323 kts | 22° |
| 2026-05-03 20:16 | 52.92790 | -8.73393 | 11748 ft | 330 kts | 22° |
| 2026-05-03 20:16 | 52.94925 | -8.71955 | 12564 ft | 333 kts | 22° |
| 2026-05-03 20:17 | 52.97059 | -8.70515 | 13344 ft | 337 kts | 22° |
| 2026-05-03 20:17 | 52.99257 | -8.69029 | 14058 ft | 343 kts | 22° |
| 2026-05-03 20:17 | 53.01477 | -8.67525 | 14827 ft | 345 kts | 22° |
| 2026-05-03 20:17 | 53.03720 | -8.66002 | 15459 ft | 351 kts | 22° |
| 2026-05-03 20:18 | 53.06001 | -8.64458 | 16126 ft | 356 kts | 22° |
| 2026-05-03 20:18 | 53.08306 | -8.62896 | 16828 ft | 359 kts | 22° |
| 2026-05-03 20:18 | 53.10586 | -8.61267 | 17475 ft | 363 kts | 27° |
| 2026-05-03 20:18 | 53.12607 | -8.58729 | 18174 ft | 367 kts | 45° |
| 2026-05-03 20:19 | 53.14072 | -8.55232 | 18780 ft | 372 kts | 63° |
| 2026-05-03 20:19 | 53.14845 | -8.51096 | 19299 ft | 381 kts | 79° |
| 2026-05-03 20:19 | 53.14878 | -8.46614 | 19711 ft | 392 kts | 95° |
| 2026-05-03 20:19 | 53.14510 | -8.42104 | 20342 ft | 394 kts | 97° |
| 2026-05-03 20:20 | 53.14088 | -8.37575 | 20556 ft | 395 kts | 97° |
| 2026-05-03 20:20 | 53.13676 | -8.33046 | 20663 ft | 396 kts | 97° |
| 2026-05-03 20:20 | 53.13290 | -8.28506 | 20772 ft | 396 kts | 96° |
| 2026-05-03 20:20 | 53.12921 | -8.23949 | 20880 ft | 397 kts | 96° |
| 2026-05-03 20:21 | 53.12562 | -8.19384 | 20965 ft | 397 kts | 96° |
| 2026-05-03 20:21 | 53.12208 | -8.14886 | 20961 ft | 397 kts | 96° |
| 2026-05-03 20:21 | 53.11845 | -8.10270 | 20965 ft | 397 kts | 96° |
| 2026-05-03 20:21 | 53.11489 | -8.05773 | 20962 ft | 397 kts | 96° |
| 2026-05-03 20:22 | 53.11126 | -8.01216 | 20963 ft | 397 kts | 96° |
| 2026-05-03 20:22 | 53.10761 | -7.96657 | 20967 ft | 397 kts | 96° |
| 2026-05-03 20:22 | 53.10392 | -7.92099 | 20966 ft | 397 kts | 96° |
| 2026-05-03 20:22 | 53.10023 | -7.87547 | 20962 ft | 397 kts | 96° |
| 2026-05-03 20:23 | 53.09653 | -7.82991 | 20965 ft | 397 kts | 96° |
| 2026-05-03 20:23 | 53.09280 | -7.78433 | 20958 ft | 397 kts | 96° |
| 2026-05-03 20:23 | 53.08906 | -7.73887 | 20963 ft | 397 kts | 96° |
| 2026-05-03 20:23 | 53.08528 | -7.69320 | 20960 ft | 397 kts | 96° |
| 2026-05-03 20:24 | 53.08149 | -7.64782 | 20772 ft | 395 kts | 96° |
| 2026-05-03 20:24 | 53.07772 | -7.60262 | 20191 ft | 393 kts | 97° |
| 2026-05-03 20:24 | 53.07401 | -7.55847 | 19981 ft | 390 kts | 97° |
| 2026-05-03 20:24 | 53.07023 | -7.51359 | 19966 ft | 393 kts | 97° |
| 2026-05-03 20:25 | 53.06640 | -7.46833 | 19965 ft | 393 kts | 97° |
| 2026-05-03 20:25 | 53.06256 | -7.42341 | 19959 ft | 393 kts | 97° |
| 2026-05-03 20:25 | 53.05869 | -7.37827 | 19967 ft | 393 kts | 97° |
| 2026-05-03 20:25 | 53.05485 | -7.33335 | 19970 ft | 393 kts | 97° |
| 2026-05-03 20:26 | 53.05099 | -7.28834 | 19969 ft | 393 kts | 97° |
| 2026-05-03 20:26 | 53.04721 | -7.24387 | 19970 ft | 393 kts | 96° |
| 2026-05-03 20:26 | 53.04378 | -7.19884 | 19920 ft | 390 kts | 96° |
| 2026-05-03 20:26 | 53.04054 | -7.15429 | 19422 ft | 388 kts | 95° |
| 2026-05-03 20:27 | 53.03731 | -7.10984 | 18805 ft | 384 kts | 96° |
| 2026-05-03 20:27 | 53.03409 | -7.06625 | 17919 ft | 379 kts | 96° |
| 2026-05-03 20:27 | 53.03081 | -7.02297 | 17115 ft | 371 kts | 96° |
| 2026-05-03 20:27 | 53.02760 | -6.98089 | 16468 ft | 365 kts | 96° |
| 2026-05-03 20:28 | 53.02442 | -6.93947 | 15738 ft | 357 kts | 96° |
| 2026-05-03 20:28 | 53.02131 | -6.89897 | 15026 ft | 349 kts | 96° |
| 2026-05-03 20:28 | 53.01825 | -6.85941 | 14305 ft | 342 kts | 96° |
| 2026-05-03 20:28 | 53.01526 | -6.82108 | 13606 ft | 335 kts | 96° |
| 2026-05-03 20:29 | 53.01230 | -6.78320 | 12916 ft | 327 kts | 96° |
| 2026-05-03 20:29 | 53.00934 | -6.74550 | 12254 ft | 343 kts | 96° |
| 2026-05-03 20:29 | 53.00627 | -6.70465 | 11523 ft | 365 kts | 94° |
| 2026-05-03 20:29 | 53.00805 | -6.66269 | 10863 ft | 364 kts | 75° |
| 2026-05-03 20:30 | 53.01787 | -6.62542 | 10657 ft | 343 kts | 56° |
| 2026-05-03 20:30 | 53.03230 | -6.59572 | 10421 ft | 319 kts | 49° |
| 2026-05-03 20:30 | 53.04205 | -6.57758 | 10265 ft | 304 kts | 47° |
| 2026-05-03 20:30 | 53.05563 | -6.55241 | 10067 ft | 281 kts | 48° |
| 2026-05-03 20:31 | 53.06790 | -6.52912 | 9859 ft | 261 kts | 49° |
| 2026-05-03 20:31 | 53.07949 | -6.50649 | 9365 ft | 254 kts | 50° |
| 2026-05-03 20:31 | 53.09049 | -6.48458 | 9069 ft | 238 kts | 50° |
| 2026-05-03 20:31 | 53.10215 | -6.46501 | 8924 ft | 244 kts | 34° |
| 2026-05-03 20:32 | 53.11798 | -6.45539 | 8803 ft | 244 kts | 7° |
| 2026-05-03 20:32 | 53.13467 | -6.45886 | 8531 ft | 242 kts | 343° |
| 2026-05-03 20:32 | 53.15004 | -6.46914 | 8213 ft | 234 kts | 338° |
| 2026-05-03 20:32 | 53.16457 | -6.48033 | 7910 ft | 226 kts | 337° |
| 2026-05-03 20:33 | 53.17872 | -6.49084 | 7622 ft | 219 kts | 339° |
| 2026-05-03 20:33 | 53.19273 | -6.50067 | 7334 ft | 228 kts | 336° |
| 2026-05-03 20:33 | 53.20561 | -6.51879 | 7093 ft | 251 kts | 307° |
| 2026-05-03 20:33 | 53.21176 | -6.54485 | 6998 ft | 245 kts | 278° |
| 2026-05-03 20:34 | 53.20959 | -6.57330 | 6982 ft | 252 kts | 252° |
| 2026-05-03 20:34 | 53.20244 | -6.60042 | 6981 ft | 252 kts | 244° |
| 2026-05-03 20:34 | 53.19465 | -6.62614 | 6977 ft | 252 kts | 244° |
| 2026-05-03 20:34 | 53.18728 | -6.65260 | 6969 ft | 252 kts | 249° |
| 2026-05-03 20:35 | 53.18420 | -6.68104 | 6977 ft | 248 kts | 273° |
| 2026-05-03 20:35 | 53.18677 | -6.70929 | 6976 ft | 246 kts | 284° |
| 2026-05-03 20:35 | 53.19019 | -6.73739 | 6977 ft | 247 kts | 284° |
| 2026-05-03 20:35 | 53.19346 | -6.76514 | 6971 ft | 246 kts | 283° |
| 2026-05-03 20:36 | 53.19661 | -6.79318 | 6970 ft | 246 kts | 283° |
| 2026-05-03 20:36 | 53.20035 | -6.82103 | 6968 ft | 245 kts | 292° |
| 2026-05-03 20:36 | 53.20862 | -6.84548 | 6970 ft | 241 kts | 312° |
| 2026-05-03 20:36 | 53.21989 | -6.86604 | 6968 ft | 240 kts | 315° |
| 2026-05-03 20:37 | 53.23115 | -6.88664 | 6970 ft | 240 kts | 314° |
| 2026-05-03 20:37 | 53.24247 | -6.90705 | 6962 ft | 238 kts | 321° |
| 2026-05-03 20:37 | 53.25699 | -6.91935 | 6975 ft | 235 kts | 349° |
| 2026-05-03 20:37 | 53.27299 | -6.91834 | 6975 ft | 232 kts | 18° |
| 2026-05-03 20:38 | 53.28649 | -6.90423 | 6921 ft | 229 kts | 46° |
| 2026-05-03 20:38 | 53.29543 | -6.88216 | 6522 ft | 230 kts | 59° |
| 2026-05-03 20:38 | 53.30320 | -6.85905 | 6308 ft | 228 kts | 59° |
| 2026-05-03 20:38 | 53.31104 | -6.83611 | 6133 ft | 229 kts | 58° |
| 2026-05-03 20:39 | 53.31923 | -6.81343 | 5939 ft | 227 kts | 57° |
| 2026-05-03 20:39 | 53.32774 | -6.79116 | 5764 ft | 227 kts | 56° |
| 2026-05-03 20:39 | 53.33640 | -6.76903 | 5569 ft | 226 kts | 56° |
| 2026-05-03 20:39 | 53.34505 | -6.74710 | 5392 ft | 226 kts | 55° |
| 2026-05-03 20:40 | 53.35371 | -6.72528 | 5207 ft | 225 kts | 56° |
| 2026-05-03 20:40 | 53.36312 | -6.70466 | 5027 ft | 223 kts | 41° |
| 2026-05-03 20:40 | 53.37690 | -6.69328 | 4991 ft | 223 kts | 13° |
| 2026-05-03 20:40 | 53.39230 | -6.69163 | 4894 ft | 221 kts | 3° |
| 2026-05-03 20:41 | 53.40771 | -6.69100 | 4407 ft | 222 kts | 4° |
| 2026-05-03 20:41 | 53.42294 | -6.69028 | 4294 ft | 217 kts | 4° |
| 2026-05-03 20:41 | 53.43742 | -6.68938 | 4177 ft | 200 kts | 6° |
| 2026-05-03 20:41 | 53.45029 | -6.68183 | 4065 ft | 200 kts | 36° |
| 2026-05-03 20:42 | 53.45844 | -6.66378 | 3986 ft | 193 kts | 69° |
| 2026-05-03 20:42 | 53.45897 | -6.64232 | 3995 ft | 179 kts | 97° |
| 2026-05-03 20:42 | 53.45690 | -6.62172 | 3994 ft | 180 kts | 96° |
| 2026-05-03 20:42 | 53.45515 | -6.60089 | 3990 ft | 179 kts | 94° |
| 2026-05-03 20:43 | 53.45376 | -6.58039 | 3847 ft | 179 kts | 92° |
| 2026-05-03 20:43 | 53.45261 | -6.55962 | 3576 ft | 177 kts | 92° |
| 2026-05-03 20:43 | 53.45146 | -6.53908 | 3329 ft | 174 kts | 92° |
| 2026-05-03 20:43 | 53.45038 | -6.51966 | 3087 ft | 164 kts | 91° |
| 2026-05-03 20:44 | 53.44934 | -6.50076 | 2853 ft | 156 kts | 91° |
| 2026-05-03 20:44 | 53.44836 | -6.48279 | 2643 ft | 157 kts | 92° |
| 2026-05-03 20:44 | 53.44738 | -6.46494 | 2436 ft | 154 kts | 91° |
| 2026-05-03 20:44 | 53.44640 | -6.44711 | 2218 ft | 151 kts | 92° |
| 2026-05-03 20:45 | 53.44540 | -6.42931 | 2014 ft | 154 kts | 92° |
| 2026-05-03 20:45 | 53.44440 | -6.41152 | 1811 ft | 154 kts | 92° |
| 2026-05-03 20:45 | 53.44344 | -6.39387 | 1595 ft | 150 kts | 91° |
| 2026-05-03 20:45 | 53.44248 | -6.37636 | 1391 ft | 152 kts | 92° |
| 2026-05-03 20:46 | 53.44149 | -6.35871 | 1174 ft | 156 kts | 92° |
| 2026-05-03 20:46 | 53.44050 | -6.34072 | 959 ft | 153 kts | 92° |
| 2026-05-03 20:46 | 53.43952 | -6.32316 | 747 ft | 148 kts | 93° |
| 2026-05-03 20:46 | 53.43861 | -6.30679 | 550 ft | 134 kts | 92° |
| 2026-05-03 20:47 | 53.43776 | -6.29119 | 376 ft | 131 kts | 92° |
| 2026-05-03 20:47 | 53.43694 | -6.27585 | 222 ft | 134 kts | 91° |
| 2026-05-03 20:47 | 53.43642 | -6.26278 | 218 ft | 85 kts | 96° |
| 2026-05-03 20:47 | 53.43593 | -6.25561 | 215 ft | 64 kts | 98° |
| 2026-05-03 20:48 | 53.43550 | -6.24979 | 218 ft | 43 kts | 96° |
| 2026-05-03 20:48 | 53.43522 | -6.24606 | 224 ft | 10 kts | 110° |
| 2026-05-03 20:48 | 53.43465 | -6.24553 | 225 ft | 11 kts | 171° |
| 2026-05-03 20:48 | 53.43375 | -6.24586 | 224 ft | 14 kts | 218° |
| 2026-05-03 20:49 | 53.43354 | -6.24680 | 217 ft | 22 kts | 259° |
| 2026-05-03 20:49 | 53.43368 | -6.24877 | 220 ft | 18 kts | 277° |
| 2026-05-03 20:49 | 53.43383 | -6.25107 | 220 ft | 21 kts | 276° |
| 2026-05-03 20:49 | 53.43399 | -6.25368 | 220 ft | 24 kts | 275° |
| 2026-05-03 20:50 | 53.43398 | -6.25611 | 223 ft | 18 kts | 245° |
| 2026-05-03 20:50 | 53.43355 | -6.25652 | 224 ft | 4 kts | 181° |
| 2026-05-03 20:50 | 53.43305 | -6.25619 | 224 ft | 10 kts | 156° |
| 2026-05-03 20:50 | 53.43226 | -6.25560 | 219 ft | 14 kts | 156° |
| 2026-05-03 20:51 | 53.43124 | -6.25485 | 221 ft | 18 kts | 156° |
| 2026-05-03 20:51 | 53.43002 | -6.25394 | 220 ft | 21 kts | 156° |
| 2026-05-03 20:51 | 53.42862 | -6.25287 | 222 ft | 23 kts | 155° |
| 2026-05-03 20:51 | 53.42757 | -6.25207 | 220 ft | 10 kts | 153° |
| 2026-05-03 20:52 | 53.42699 | -6.25118 | 222 ft | 13 kts | 138° |
| 2026-05-03 20:52 | 53.42612 | -6.25036 | 224 ft | 16 kts | 154° |
| 2026-05-03 20:52 | 53.42560 | -6.24911 | 219 ft | 2 kts | 86° |
| 2026-05-03 20:52 | 53.42552 | -6.24866 | 223 ft | 8 kts | 107° |
| 2026-05-03 20:53 | 53.42553 | -6.24761 | 225 ft | 10 kts | 78° |
| 2026-05-03 20:53 | 53.42567 | -6.24684 | 225 ft | 0 kts | 72° |